sensor_id;sensor_type;location;lat;lon;timestamp;temperature;humidity
21171;DHT22;10743;52.160;20.910;2023-07-24T00:01:17;34.20;38.30
21171;DHT22;10743;52.160;20.910;2023-07-24T00:03:45;34.10;38.40
21171;DHT22;10743;52.160;20.910;2023-07-24T00:06:12;34.20;38.50
21171;DHT22;10743;52.160;20.910;2023-07-24T00:08:39;34.10;38.10
21171;DHT22;10743;52.160;20.910;2023-07-24T00:11:09;34.10;37.90
21171;DHT22;10743;52.160;20.910;2023-07-24T00:13:36;34.00;38.30
21171;DHT22;10743;52.160;20.910;2023-07-24T00:16:08;34.00;37.60
21171;DHT22;10743;52.160;20.910;2023-07-24T00:18:35;34.00;37.50
21171;DHT22;10743;52.160;20.910;2023-07-24T00:21:02;34.00;37.10
21171;DHT22;10743;52.160;20.910;2023-07-24T00:23:29;34.00;36.80
21171;DHT22;10743;52.160;20.910;2023-07-24T00:25:56;34.00;36.70
21171;DHT22;10743;52.160;20.910;2023-07-24T00:28:23;34.00;36.70
21171;DHT22;10743;52.160;20.910;2023-07-24T00:30:52;34.00;36.60
21171;DHT22;10743;52.160;20.910;2023-07-24T00:33:19;34.00;36.50
21171;DHT22;10743;52.160;20.910;2023-07-24T00:35:46;34.00;36.50
21171;DHT22;10743;52.160;20.910;2023-07-24T00:38:14;34.00;36.40
21171;DHT22;10743;52.160;20.910;2023-07-24T00:40:41;34.00;36.40
21171;DHT22;10743;52.160;20.910;2023-07-24T00:43:08;34.00;36.20
21171;DHT22;10743;52.160;20.910;2023-07-24T00:45:35;34.00;37.00
21171;DHT22;10743;52.160;20.910;2023-07-24T00:48:03;33.90;36.40
21171;DHT22;10743;52.160;20.910;2023-07-24T00:50:30;33.90;36.20
21171;DHT22;10743;52.160;20.910;2023-07-24T00:52:58;33.90;36.10
21171;DHT22;10743;52.160;20.910;2023-07-24T00:55:25;34.00;36.10
21171;DHT22;10743;52.160;20.910;2023-07-24T00:57:53;33.90;36.00
21171;DHT22;10743;52.160;20.910;2023-07-24T01:00:21;33.90;36.00
21171;DHT22;10743;52.160;20.910;2023-07-24T01:02:48;33.90;35.90
21171;DHT22;10743;52.160;20.910;2023-07-24T01:05:17;33.90;35.70
21171;DHT22;10743;52.160;20.910;2023-07-24T01:07:44;33.90;35.60
21171;DHT22;10743;52.160;20.910;2023-07-24T01:10:11;34.00;35.60
21171;DHT22;10743;52.160;20.910;2023-07-24T01:12:45;33.90;35.30
21171;DHT22;10743;52.160;20.910;2023-07-24T01:15:22;33.90;35.10
21171;DHT22;10743;52.160;20.910;2023-07-24T01:17:59;34.00;35.20
21171;DHT22;10743;52.160;20.910;2023-07-24T01:20:29;34.00;35.00
21171;DHT22;10743;52.160;20.910;2023-07-24T01:25:59;34.00;34.20
21171;DHT22;10743;52.160;20.910;2023-07-24T01:28:29;34.00;34.20
21171;DHT22;10743;52.160;20.910;2023-07-24T01:30:57;34.00;34.10
21171;DHT22;10743;52.160;20.910;2023-07-24T01:33:25;34.00;34.20
21171;DHT22;10743;52.160;20.910;2023-07-24T01:35:58;34.00;34.10
21171;DHT22;10743;52.160;20.910;2023-07-24T01:38:27;34.10;33.80
21171;DHT22;10743;52.160;20.910;2023-07-24T01:40:55;34.10;33.70
21171;DHT22;10743;52.160;20.910;2023-07-24T01:43:25;34.10;33.50
21171;DHT22;10743;52.160;20.910;2023-07-24T01:45:55;34.10;33.50
21171;DHT22;10743;52.160;20.910;2023-07-24T01:48:23;34.10;33.20
21171;DHT22;10743;52.160;20.910;2023-07-24T01:50:50;34.20;33.00
21171;DHT22;10743;52.160;20.910;2023-07-24T01:53:17;34.20;33.20
21171;DHT22;10743;52.160;20.910;2023-07-24T01:55:44;34.20;32.80
21171;DHT22;10743;52.160;20.910;2023-07-24T01:58:11;34.20;32.80
21171;DHT22;10743;52.160;20.910;2023-07-24T02:00:39;34.20;32.50
21171;DHT22;10743;52.160;20.910;2023-07-24T02:03:06;34.20;32.80
21171;DHT22;10743;52.160;20.910;2023-07-24T02:05:33;34.20;32.40
21171;DHT22;10743;52.160;20.910;2023-07-24T02:08:01;34.20;32.20
21171;DHT22;10743;52.160;20.910;2023-07-24T02:10:28;34.30;32.10
21171;DHT22;10743;52.160;20.910;2023-07-24T02:12:55;34.30;32.30
21171;DHT22;10743;52.160;20.910;2023-07-24T02:15:22;34.30;32.10
21171;DHT22;10743;52.160;20.910;2023-07-24T02:17:49;34.30;32.10
21171;DHT22;10743;52.160;20.910;2023-07-24T02:20:16;34.30;32.60
21171;DHT22;10743;52.160;20.910;2023-07-24T02:22:43;34.30;32.60
21171;DHT22;10743;52.160;20.910;2023-07-24T02:25:10;34.30;32.80
21171;DHT22;10743;52.160;20.910;2023-07-24T02:27:38;34.20;32.80
21171;DHT22;10743;52.160;20.910;2023-07-24T02:30:05;34.30;33.60
21171;DHT22;10743;52.160;20.910;2023-07-24T02:32:34;34.20;33.20
21171;DHT22;10743;52.160;20.910;2023-07-24T02:35:01;34.20;32.80
21171;DHT22;10743;52.160;20.910;2023-07-24T02:37:28;34.20;32.80
21171;DHT22;10743;52.160;20.910;2023-07-24T02:39:55;34.20;32.90
21171;DHT22;10743;52.160;20.910;2023-07-24T02:42:22;34.20;33.20
21171;DHT22;10743;52.160;20.910;2023-07-24T02:44:50;34.10;33.30
21171;DHT22;10743;52.160;20.910;2023-07-24T02:47:17;34.10;33.10
21171;DHT22;10743;52.160;20.910;2023-07-24T02:49:44;34.00;33.20
21171;DHT22;10743;52.160;20.910;2023-07-24T02:52:11;34.00;33.20
21171;DHT22;10743;52.160;20.910;2023-07-24T02:54:38;34.00;33.00
21171;DHT22;10743;52.160;20.910;2023-07-24T02:57:05;34.00;32.80
21171;DHT22;10743;52.160;20.910;2023-07-24T02:59:32;34.00;32.70
21171;DHT22;10743;52.160;20.910;2023-07-24T03:02:01;34.00;32.40
21171;DHT22;10743;52.160;20.910;2023-07-24T03:04:28;34.00;32.80
21171;DHT22;10743;52.160;20.910;2023-07-24T03:06:55;34.00;32.50
21171;DHT22;10743;52.160;20.910;2023-07-24T03:09:22;34.00;32.40
21171;DHT22;10743;52.160;20.910;2023-07-24T03:11:49;33.90;32.30
21171;DHT22;10743;52.160;20.910;2023-07-24T03:14:17;33.90;32.40
21171;DHT22;10743;52.160;20.910;2023-07-24T03:16:44;33.90;32.20
21171;DHT22;10743;52.160;20.910;2023-07-24T03:19:11;33.90;32.50
21171;DHT22;10743;52.160;20.910;2023-07-24T03:21:38;33.90;32.50
21171;DHT22;10743;52.160;20.910;2023-07-24T03:24:05;33.90;32.50
21171;DHT22;10743;52.160;20.910;2023-07-24T03:26:33;33.90;32.60
21171;DHT22;10743;52.160;20.910;2023-07-24T03:29:00;34.00;32.40
21171;DHT22;10743;52.160;20.910;2023-07-24T03:31:27;34.00;32.30
21171;DHT22;10743;52.160;20.910;2023-07-24T03:33:54;34.00;32.30
21171;DHT22;10743;52.160;20.910;2023-07-24T03:36:21;34.00;32.40
21171;DHT22;10743;52.160;20.910;2023-07-24T03:38:51;34.00;32.40
21171;DHT22;10743;52.160;20.910;2023-07-24T03:41:18;34.00;32.50
21171;DHT22;10743;52.160;20.910;2023-07-24T03:43:45;34.00;32.50
21171;DHT22;10743;52.160;20.910;2023-07-24T03:46:13;34.00;32.50
21171;DHT22;10743;52.160;20.910;2023-07-24T03:48:40;34.00;32.60
21171;DHT22;10743;52.160;20.910;2023-07-24T03:51:08;34.00;32.70
21171;DHT22;10743;52.160;20.910;2023-07-24T03:53:35;34.00;32.70
21171;DHT22;10743;52.160;20.910;2023-07-24T03:56:02;34.00;33.10
21171;DHT22;10743;52.160;20.910;2023-07-24T03:58:30;34.00;32.90
21171;DHT22;10743;52.160;20.910;2023-07-24T04:00:57;34.00;33.00
21171;DHT22;10743;52.160;20.910;2023-07-24T04:03:24;34.00;33.00
21171;DHT22;10743;52.160;20.910;2023-07-24T04:05:51;34.00;33.00
21171;DHT22;10743;52.160;20.910;2023-07-24T04:08:18;33.90;33.10
21171;DHT22;10743;52.160;20.910;2023-07-24T04:10:45;34.00;33.10
21171;DHT22;10743;52.160;20.910;2023-07-24T04:13:12;34.00;33.20
21171;DHT22;10743;52.160;20.910;2023-07-24T04:15:39;34.00;33.50
21171;DHT22;10743;52.160;20.910;2023-07-24T04:18:06;34.00;33.50
21171;DHT22;10743;52.160;20.910;2023-07-24T04:20:33;34.00;33.30
21171;DHT22;10743;52.160;20.910;2023-07-24T04:23:00;34.00;33.20
21171;DHT22;10743;52.160;20.910;2023-07-24T04:25:27;34.00;33.40
21171;DHT22;10743;52.160;20.910;2023-07-24T04:27:54;33.90;33.40
21171;DHT22;10743;52.160;20.910;2023-07-24T04:30:21;34.00;33.70
21171;DHT22;10743;52.160;20.910;2023-07-24T04:32:48;34.00;33.80
21171;DHT22;10743;52.160;20.910;2023-07-24T04:35:16;34.00;34.20
21171;DHT22;10743;52.160;20.910;2023-07-24T04:37:43;34.00;34.20
21171;DHT22;10743;52.160;20.910;2023-07-24T04:40:11;34.00;34.20
21171;DHT22;10743;52.160;20.910;2023-07-24T04:42:38;34.00;34.00
21171;DHT22;10743;52.160;20.910;2023-07-24T04:45:06;34.00;33.80
21171;DHT22;10743;52.160;20.910;2023-07-24T04:47:33;34.00;33.60
21171;DHT22;10743;52.160;20.910;2023-07-24T04:50:01;34.00;33.60
21171;DHT22;10743;52.160;20.910;2023-07-24T04:52:28;34.00;33.60
21171;DHT22;10743;52.160;20.910;2023-07-24T04:54:55;34.00;33.70
21171;DHT22;10743;52.160;20.910;2023-07-24T04:57:22;34.00;33.80
21171;DHT22;10743;52.160;20.910;2023-07-24T04:59:49;34.00;34.00
21171;DHT22;10743;52.160;20.910;2023-07-24T05:02:16;34.00;33.90
21171;DHT22;10743;52.160;20.910;2023-07-24T05:04:43;34.10;33.90
21171;DHT22;10743;52.160;20.910;2023-07-24T05:07:10;34.10;33.80
21171;DHT22;10743;52.160;20.910;2023-07-24T05:09:37;34.20;34.10
21171;DHT22;10743;52.160;20.910;2023-07-24T05:12:05;34.10;33.80
21171;DHT22;10743;52.160;20.910;2023-07-24T05:14:32;34.20;33.90
21171;DHT22;10743;52.160;20.910;2023-07-24T05:16:59;34.20;33.80
21171;DHT22;10743;52.160;20.910;2023-07-24T05:19:26;34.30;33.90
21171;DHT22;10743;52.160;20.910;2023-07-24T05:21:53;34.30;34.00
21171;DHT22;10743;52.160;20.910;2023-07-24T05:24:20;34.30;33.80
21171;DHT22;10743;52.160;20.910;2023-07-24T05:26:47;34.30;33.50
21171;DHT22;10743;52.160;20.910;2023-07-24T05:29:14;34.40;33.40
21171;DHT22;10743;52.160;20.910;2023-07-24T05:31:41;34.40;33.60
21171;DHT22;10743;52.160;20.910;2023-07-24T05:34:09;34.40;33.40
21171;DHT22;10743;52.160;20.910;2023-07-24T05:36:36;34.40;33.30
21171;DHT22;10743;52.160;20.910;2023-07-24T05:39:03;34.50;33.30
21171;DHT22;10743;52.160;20.910;2023-07-24T05:41:30;34.50;33.10
21171;DHT22;10743;52.160;20.910;2023-07-24T05:43:57;34.50;33.10
21171;DHT22;10743;52.160;20.910;2023-07-24T05:46:24;34.50;33.30
21171;DHT22;10743;52.160;20.910;2023-07-24T05:48:52;34.50;33.10
21171;DHT22;10743;52.160;20.910;2023-07-24T05:51:19;34.60;33.10
21171;DHT22;10743;52.160;20.910;2023-07-24T05:53:46;34.60;33.10
21171;DHT22;10743;52.160;20.910;2023-07-24T05:56:13;34.60;33.10
21171;DHT22;10743;52.160;20.910;2023-07-24T05:58:40;34.60;32.90
21171;DHT22;10743;52.160;20.910;2023-07-24T06:01:07;34.70;32.70
21171;DHT22;10743;52.160;20.910;2023-07-24T06:03:37;34.70;32.90
21171;DHT22;10743;52.160;20.910;2023-07-24T06:06:05;34.70;33.00
21171;DHT22;10743;52.160;20.910;2023-07-24T06:08:32;34.70;33.20
21171;DHT22;10743;52.160;20.910;2023-07-24T06:10:59;34.70;33.00
21171;DHT22;10743;52.160;20.910;2023-07-24T06:13:26;34.70;33.10
21171;DHT22;10743;52.160;20.910;2023-07-24T06:15:53;34.70;32.90
21171;DHT22;10743;52.160;20.910;2023-07-24T06:18:21;34.70;32.80
21171;DHT22;10743;52.160;20.910;2023-07-24T06:20:52;34.80;32.90
21171;DHT22;10743;52.160;20.910;2023-07-24T06:23:19;34.80;32.80
21171;DHT22;10743;52.160;20.910;2023-07-24T06:25:46;34.80;32.90
21171;DHT22;10743;52.160;20.910;2023-07-24T06:28:14;34.80;32.90
21171;DHT22;10743;52.160;20.910;2023-07-24T06:30:41;34.80;33.00
21171;DHT22;10743;52.160;20.910;2023-07-24T06:33:08;34.80;32.90
21171;DHT22;10743;52.160;20.910;2023-07-24T06:35:35;34.80;32.90
21171;DHT22;10743;52.160;20.910;2023-07-24T06:38:02;34.90;33.00
21171;DHT22;10743;52.160;20.910;2023-07-24T06:40:29;34.90;33.10
21171;DHT22;10743;52.160;20.910;2023-07-24T06:42:56;34.90;33.20
21171;DHT22;10743;52.160;20.910;2023-07-24T06:45:24;34.90;33.30
21171;DHT22;10743;52.160;20.910;2023-07-24T06:47:51;34.90;32.90
21171;DHT22;10743;52.160;20.910;2023-07-24T06:50:18;35.00;32.40
21171;DHT22;10743;52.160;20.910;2023-07-24T06:52:45;35.00;32.60
21171;DHT22;10743;52.160;20.910;2023-07-24T06:55:12;35.00;32.80
21171;DHT22;10743;52.160;20.910;2023-07-24T06:57:39;35.00;33.00
21171;DHT22;10743;52.160;20.910;2023-07-24T07:00:07;35.10;33.00
21171;DHT22;10743;52.160;20.910;2023-07-24T07:02:38;35.10;32.80
21171;DHT22;10743;52.160;20.910;2023-07-24T07:05:06;35.10;33.10
21171;DHT22;10743;52.160;20.910;2023-07-24T07:07:33;35.10;33.00
21171;DHT22;10743;52.160;20.910;2023-07-24T07:10:00;35.20;32.80
21171;DHT22;10743;52.160;20.910;2023-07-24T07:12:27;35.30;32.60
21171;DHT22;10743;52.160;20.910;2023-07-24T07:14:55;35.30;32.80
21171;DHT22;10743;52.160;20.910;2023-07-24T07:17:22;35.30;32.80
21171;DHT22;10743;52.160;20.910;2023-07-24T07:19:49;35.30;32.80
21171;DHT22;10743;52.160;20.910;2023-07-24T07:22:16;35.30;32.80
21171;DHT22;10743;52.160;20.910;2023-07-24T07:24:43;35.40;32.80
21171;DHT22;10743;52.160;20.910;2023-07-24T07:27:13;35.40;32.50
21171;DHT22;10743;52.160;20.910;2023-07-24T07:29:43;35.50;32.50
21171;DHT22;10743;52.160;20.910;2023-07-24T07:32:11;35.50;32.80
21171;DHT22;10743;52.160;20.910;2023-07-24T07:34:38;35.60;32.50
21171;DHT22;10743;52.160;20.910;2023-07-24T07:37:06;35.60;32.30
21171;DHT22;10743;52.160;20.910;2023-07-24T07:39:33;35.70;31.40
21171;DHT22;10743;52.160;20.910;2023-07-24T07:42:00;35.70;31.70
21171;DHT22;10743;52.160;20.910;2023-07-24T07:44:33;35.80;31.80
21171;DHT22;10743;52.160;20.910;2023-07-24T07:47:00;35.90;32.00
21171;DHT22;10743;52.160;20.910;2023-07-24T07:49:27;35.90;31.70
21171;DHT22;10743;52.160;20.910;2023-07-24T07:51:57;36.00;31.60
21171;DHT22;10743;52.160;20.910;2023-07-24T07:54:24;36.00;31.50
21171;DHT22;10743;52.160;20.910;2023-07-24T07:56:51;36.00;31.70
21171;DHT22;10743;52.160;20.910;2023-07-24T07:59:19;36.10;31.20
21171;DHT22;10743;52.160;20.910;2023-07-24T08:01:46;36.10;31.60
21171;DHT22;10743;52.160;20.910;2023-07-24T08:04:13;36.20;31.40
21171;DHT22;10743;52.160;20.910;2023-07-24T08:06:40;36.20;31.10
21171;DHT22;10743;52.160;20.910;2023-07-24T08:09:07;36.20;31.20
21171;DHT22;10743;52.160;20.910;2023-07-24T08:11:35;36.30;31.50
21171;DHT22;10743;52.160;20.910;2023-07-24T08:14:02;36.30;31.30
21171;DHT22;10743;52.160;20.910;2023-07-24T08:16:29;36.40;31.40
21171;DHT22;10743;52.160;20.910;2023-07-24T08:18:56;36.40;31.60
21171;DHT22;10743;52.160;20.910;2023-07-24T08:21:24;36.50;31.50
21171;DHT22;10743;52.160;20.910;2023-07-24T08:23:51;36.50;31.30
21171;DHT22;10743;52.160;20.910;2023-07-24T08:26:18;36.50;31.60
21171;DHT22;10743;52.160;20.910;2023-07-24T08:28:45;36.50;31.50
21171;DHT22;10743;52.160;20.910;2023-07-24T08:31:12;36.60;31.70
21171;DHT22;10743;52.160;20.910;2023-07-24T08:33:39;36.70;32.40
21171;DHT22;10743;52.160;20.910;2023-07-24T08:36:07;36.80;30.90
21171;DHT22;10743;52.160;20.910;2023-07-24T08:38:35;36.90;31.20
21171;DHT22;10743;52.160;20.910;2023-07-24T08:41:13;37.00;31.50
21171;DHT22;10743;52.160;20.910;2023-07-24T08:43:42;37.00;31.30
21171;DHT22;10743;52.160;20.910;2023-07-24T08:46:10;37.00;31.50
21171;DHT22;10743;52.160;20.910;2023-07-24T08:48:42;37.10;31.50
21171;DHT22;10743;52.160;20.910;2023-07-24T08:51:14;37.20;31.40
21171;DHT22;10743;52.160;20.910;2023-07-24T08:53:43;37.30;31.00
21171;DHT22;10743;52.160;20.910;2023-07-24T08:56:11;37.30;31.00
21171;DHT22;10743;52.160;20.910;2023-07-24T08:58:39;37.40;30.60
21171;DHT22;10743;52.160;20.910;2023-07-24T09:01:07;37.40;30.70
21171;DHT22;10743;52.160;20.910;2023-07-24T09:03:35;37.50;31.10
21171;DHT22;10743;52.160;20.910;2023-07-24T09:06:03;37.50;31.40
21171;DHT22;10743;52.160;20.910;2023-07-24T09:08:36;37.50;30.70
21171;DHT22;10743;52.160;20.910;2023-07-24T09:11:06;37.60;30.40
21171;DHT22;10743;52.160;20.910;2023-07-24T09:13:35;37.60;30.30
21171;DHT22;10743;52.160;20.910;2023-07-24T09:16:04;37.60;30.20
21171;DHT22;10743;52.160;20.910;2023-07-24T09:18:41;37.60;30.50
21171;DHT22;10743;52.160;20.910;2023-07-24T09:21:10;37.70;30.70
21171;DHT22;10743;52.160;20.910;2023-07-24T09:23:40;37.70;30.90
21171;DHT22;10743;52.160;20.910;2023-07-24T09:26:10;37.80;30.60
21171;DHT22;10743;52.160;20.910;2023-07-24T09:28:37;37.80;30.00
21171;DHT22;10743;52.160;20.910;2023-07-24T09:31:04;37.90;30.00
21171;DHT22;10743;52.160;20.910;2023-07-24T09:36:08;38.00;30.20
21171;DHT22;10743;52.160;20.910;2023-07-24T09:38:36;38.00;30.30
21171;DHT22;10743;52.160;20.910;2023-07-24T09:41:04;38.00;30.20
21171;DHT22;10743;52.160;20.910;2023-07-24T09:43:32;38.00;30.00
21171;DHT22;10743;52.160;20.910;2023-07-24T09:46:08;38.00;30.00
21171;DHT22;10743;52.160;20.910;2023-07-24T09:48:37;38.00;30.00
21171;DHT22;10743;52.160;20.910;2023-07-24T09:51:11;38.10;30.20
21171;DHT22;10743;52.160;20.910;2023-07-24T09:53:55;38.10;30.70
21171;DHT22;10743;52.160;20.910;2023-07-24T09:56:24;38.10;30.20
21171;DHT22;10743;52.160;20.910;2023-07-24T09:59:12;38.10;30.30
21171;DHT22;10743;52.160;20.910;2023-07-24T10:01:40;38.10;30.70
21171;DHT22;10743;52.160;20.910;2023-07-24T10:04:07;38.20;30.50
21171;DHT22;10743;52.160;20.910;2023-07-24T10:06:35;38.20;29.90
21171;DHT22;10743;52.160;20.910;2023-07-24T10:09:03;38.20;30.00
21171;DHT22;10743;52.160;20.910;2023-07-24T10:11:30;38.20;31.50
21171;DHT22;10743;52.160;20.910;2023-07-24T10:13:58;38.20;30.40
21171;DHT22;10743;52.160;20.910;2023-07-24T10:16:26;38.20;30.30
21171;DHT22;10743;52.160;20.910;2023-07-24T10:18:53;38.20;29.80
21171;DHT22;10743;52.160;20.910;2023-07-24T10:21:27;38.20;30.70
21171;DHT22;10743;52.160;20.910;2023-07-24T10:23:59;38.30;30.60
21171;DHT22;10743;52.160;20.910;2023-07-24T10:26:27;38.30;29.90
21171;DHT22;10743;52.160;20.910;2023-07-24T10:28:54;38.40;29.90
21171;DHT22;10743;52.160;20.910;2023-07-24T10:31:24;38.40;29.40
21171;DHT22;10743;52.160;20.910;2023-07-24T10:33:54;38.40;29.50
21171;DHT22;10743;52.160;20.910;2023-07-24T10:36:23;38.40;29.80
21171;DHT22;10743;52.160;20.910;2023-07-24T10:38:55;38.50;29.80
21171;DHT22;10743;52.160;20.910;2023-07-24T10:41:34;38.60;29.20
21171;DHT22;10743;52.160;20.910;2023-07-24T10:44:02;38.60;28.70
21171;DHT22;10743;52.160;20.910;2023-07-24T10:46:38;38.60;28.50
21171;DHT22;10743;52.160;20.910;2023-07-24T10:49:08;38.60;28.10
21171;DHT22;10743;52.160;20.910;2023-07-24T10:51:35;38.60;28.20
21171;DHT22;10743;52.160;20.910;2023-07-24T10:54:05;38.60;28.10
21171;DHT22;10743;52.160;20.910;2023-07-24T10:56:32;38.60;28.20
21171;DHT22;10743;52.160;20.910;2023-07-24T10:59:03;38.60;28.20
21171;DHT22;10743;52.160;20.910;2023-07-24T11:01:32;38.60;28.60
21171;DHT22;10743;52.160;20.910;2023-07-24T11:04:00;38.70;29.00
21171;DHT22;10743;52.160;20.910;2023-07-24T11:06:28;38.70;28.80
21171;DHT22;10743;52.160;20.910;2023-07-24T11:08:57;38.80;28.70
21171;DHT22;10743;52.160;20.910;2023-07-24T11:11:30;38.90;28.60
21171;DHT22;10743;52.160;20.910;2023-07-24T11:13:58;39.00;28.70
21171;DHT22;10743;52.160;20.910;2023-07-24T11:16:27;39.10;28.50
21171;DHT22;10743;52.160;20.910;2023-07-24T11:18:54;39.20;27.90
21171;DHT22;10743;52.160;20.910;2023-07-24T11:21:25;39.30;28.20
21171;DHT22;10743;52.160;20.910;2023-07-24T11:23:54;39.30;27.90
21171;DHT22;10743;52.160;20.910;2023-07-24T11:26:24;39.40;28.50
21171;DHT22;10743;52.160;20.910;2023-07-24T11:28:53;39.50;28.30
21171;DHT22;10743;52.160;20.910;2023-07-24T11:31:20;39.60;28.40
21171;DHT22;10743;52.160;20.910;2023-07-24T11:33:49;39.60;27.90
21171;DHT22;10743;52.160;20.910;2023-07-24T11:36:17;39.70;28.10
21171;DHT22;10743;52.160;20.910;2023-07-24T11:38:46;39.80;28.10
21171;DHT22;10743;52.160;20.910;2023-07-24T11:41:14;39.90;28.00
21171;DHT22;10743;52.160;20.910;2023-07-24T11:43:46;40.00;27.70
21171;DHT22;10743;52.160;20.910;2023-07-24T11:46:25;40.10;27.70
21171;DHT22;10743;52.160;20.910;2023-07-24T11:48:54;40.10;27.70
21171;DHT22;10743;52.160;20.910;2023-07-24T11:51:27;40.20;27.40
21171;DHT22;10743;52.160;20.910;2023-07-24T11:54:07;40.20;27.80
21171;DHT22;10743;52.160;20.910;2023-07-24T11:56:35;40.30;27.50
21171;DHT22;10743;52.160;20.910;2023-07-24T11:59:14;40.50;27.40
21171;DHT22;10743;52.160;20.910;2023-07-24T12:01:45;40.60;26.90
21171;DHT22;10743;52.160;20.910;2023-07-24T12:04:15;40.70;26.80
21171;DHT22;10743;52.160;20.910;2023-07-24T12:06:43;40.90;26.50
21171;DHT22;10743;52.160;20.910;2023-07-24T12:09:11;40.90;26.60
21171;DHT22;10743;52.160;20.910;2023-07-24T12:11:45;40.90;26.50
21171;DHT22;10743;52.160;20.910;2023-07-24T12:14:14;41.00;26.50
21171;DHT22;10743;52.160;20.910;2023-07-24T12:16:42;41.00;26.30
21171;DHT22;10743;52.160;20.910;2023-07-24T12:19:09;41.00;26.70
21171;DHT22;10743;52.160;20.910;2023-07-24T12:21:36;41.00;27.40
21171;DHT22;10743;52.160;20.910;2023-07-24T12:24:03;41.00;26.90
21171;DHT22;10743;52.160;20.910;2023-07-24T12:26:31;41.00;26.70
21171;DHT22;10743;52.160;20.910;2023-07-24T12:28:58;41.00;26.60
21171;DHT22;10743;52.160;20.910;2023-07-24T12:31:27;41.00;26.30
21171;DHT22;10743;52.160;20.910;2023-07-24T12:33:55;41.00;26.30
21171;DHT22;10743;52.160;20.910;2023-07-24T12:36:23;41.00;26.10
21171;DHT22;10743;52.160;20.910;2023-07-24T12:38:50;41.00;26.30
21171;DHT22;10743;52.160;20.910;2023-07-24T12:41:17;41.00;26.60
21171;DHT22;10743;52.160;20.910;2023-07-24T12:43:44;41.00;26.70
21171;DHT22;10743;52.160;20.910;2023-07-24T12:46:12;41.00;26.60
21171;DHT22;10743;52.160;20.910;2023-07-24T12:48:39;41.00;26.90
21171;DHT22;10743;52.160;20.910;2023-07-24T12:51:06;41.00;26.70
21171;DHT22;10743;52.160;20.910;2023-07-24T12:53:33;41.00;26.70
21171;DHT22;10743;52.160;20.910;2023-07-24T12:56:13;41.10;26.50
21171;DHT22;10743;52.160;20.910;2023-07-24T12:58:40;41.10;26.40
21171;DHT22;10743;52.160;20.910;2023-07-24T13:01:07;41.10;26.70
21171;DHT22;10743;52.160;20.910;2023-07-24T13:03:35;41.20;26.50
21171;DHT22;10743;52.160;20.910;2023-07-24T13:06:02;41.20;26.30
21171;DHT22;10743;52.160;20.910;2023-07-24T13:08:29;41.30;26.10
21171;DHT22;10743;52.160;20.910;2023-07-24T13:10:56;41.30;26.60
21171;DHT22;10743;52.160;20.910;2023-07-24T13:13:23;41.30;26.30
21171;DHT22;10743;52.160;20.910;2023-07-24T13:15:50;41.30;26.30
21171;DHT22;10743;52.160;20.910;2023-07-24T13:18:17;41.30;26.70
21171;DHT22;10743;52.160;20.910;2023-07-24T13:20:58;41.30;26.60
21171;DHT22;10743;52.160;20.910;2023-07-24T13:23:25;41.30;27.00
21171;DHT22;10743;52.160;20.910;2023-07-24T13:25:52;41.30;26.60
21171;DHT22;10743;52.160;20.910;2023-07-24T13:28:20;41.30;26.40
21171;DHT22;10743;52.160;20.910;2023-07-24T13:30:47;41.30;26.30
21171;DHT22;10743;52.160;20.910;2023-07-24T13:33:14;41.30;26.60
21171;DHT22;10743;52.160;20.910;2023-07-24T13:35:42;41.30;26.50
21171;DHT22;10743;52.160;20.910;2023-07-24T13:38:09;41.20;26.70
21171;DHT22;10743;52.160;20.910;2023-07-24T13:40:37;41.20;26.00
21171;DHT22;10743;52.160;20.910;2023-07-24T13:43:04;41.10;25.60
21171;DHT22;10743;52.160;20.910;2023-07-24T13:45:31;41.10;25.40
21171;DHT22;10743;52.160;20.910;2023-07-24T13:47:58;41.10;25.70
21171;DHT22;10743;52.160;20.910;2023-07-24T13:50:25;41.10;26.20
21171;DHT22;10743;52.160;20.910;2023-07-24T13:52:53;41.10;26.30
21171;DHT22;10743;52.160;20.910;2023-07-24T13:55:20;41.10;25.80
21171;DHT22;10743;52.160;20.910;2023-07-24T13:57:47;41.10;25.70
21171;DHT22;10743;52.160;20.910;2023-07-24T14:00:14;41.10;25.80
21171;DHT22;10743;52.160;20.910;2023-07-24T14:02:41;41.10;26.10
21171;DHT22;10743;52.160;20.910;2023-07-24T14:05:09;41.20;24.80
21171;DHT22;10743;52.160;20.910;2023-07-24T14:07:36;41.30;24.70
21171;DHT22;10743;52.160;20.910;2023-07-24T14:10:03;41.40;24.60
21171;DHT22;10743;52.160;20.910;2023-07-24T14:12:30;41.40;24.50
21171;DHT22;10743;52.160;20.910;2023-07-24T14:14:57;41.50;24.70
21171;DHT22;10743;52.160;20.910;2023-07-24T14:17:25;41.50;24.90
21171;DHT22;10743;52.160;20.910;2023-07-24T14:19:52;41.50;24.70
21171;DHT22;10743;52.160;20.910;2023-07-24T14:22:19;41.60;24.70
21171;DHT22;10743;52.160;20.910;2023-07-24T14:24:46;41.60;24.70
21171;DHT22;10743;52.160;20.910;2023-07-24T14:27:14;41.60;24.80
21171;DHT22;10743;52.160;20.910;2023-07-24T14:29:41;41.60;24.70
21171;DHT22;10743;52.160;20.910;2023-07-24T14:32:08;41.60;24.90
21171;DHT22;10743;52.160;20.910;2023-07-24T14:34:35;41.60;24.80
21171;DHT22;10743;52.160;20.910;2023-07-24T14:37:02;41.70;25.00
21171;DHT22;10743;52.160;20.910;2023-07-24T14:39:29;41.70;25.00
21171;DHT22;10743;52.160;20.910;2023-07-24T14:41:57;41.70;24.70
21171;DHT22;10743;52.160;20.910;2023-07-24T14:44:24;41.70;25.30
21171;DHT22;10743;52.160;20.910;2023-07-24T14:46:52;41.70;25.30
21171;DHT22;10743;52.160;20.910;2023-07-24T14:49:19;41.70;25.10
21171;DHT22;10743;52.160;20.910;2023-07-24T14:51:46;41.70;25.30
21171;DHT22;10743;52.160;20.910;2023-07-24T14:54:13;41.70;25.20
21171;DHT22;10743;52.160;20.910;2023-07-24T14:56:40;41.70;25.30
21171;DHT22;10743;52.160;20.910;2023-07-24T14:59:24;41.70;25.20
21171;DHT22;10743;52.160;20.910;2023-07-24T15:01:52;41.70;25.30
21171;DHT22;10743;52.160;20.910;2023-07-24T15:04:19;41.60;25.20
21171;DHT22;10743;52.160;20.910;2023-07-24T15:06:46;41.60;25.30
21171;DHT22;10743;52.160;20.910;2023-07-24T15:09:13;41.60;25.20
21171;DHT22;10743;52.160;20.910;2023-07-24T15:11:40;41.50;25.20
21171;DHT22;10743;52.160;20.910;2023-07-24T15:14:07;41.50;25.30
21171;DHT22;10743;52.160;20.910;2023-07-24T15:16:34;41.50;25.50
21171;DHT22;10743;52.160;20.910;2023-07-24T15:19:01;41.50;25.30
21171;DHT22;10743;52.160;20.910;2023-07-24T15:21:28;41.50;25.50
21171;DHT22;10743;52.160;20.910;2023-07-24T15:23:56;41.50;25.40
21171;DHT22;10743;52.160;20.910;2023-07-24T15:26:24;41.50;25.10